Yellow Mule RAWS (NWS)

Aggregated by Synoptic Data
Date/Time Wind Direction Wind Speed knots Wind Gust knots RH % Accumulated Precip Inches Air Temp Fahrenheit
2024-04-17 08:04 N 4 6 91 1.12 17
2024-04-17 07:04 NNW 2 4 92 1.12 14
2024-04-17 06:04 NNE 3 4 92 1.12 15
2024-04-17 05:04 NNW 3 8 92 1.12 15
2024-04-17 04:04 N 5 9 93 1.12 15
2024-04-17 03:04 NNW 6 11 93 1.12 16
2024-04-17 02:04 NNE 5 12 94 1.12 17
2024-04-17 01:04 NNE 5 11 95 1.12 18
2024-04-17 00:04 NNE 4 11 97 1.12 20
2024-04-16 23:04 NNE 3 10 98 1.12 22
2024-04-16 22:04 NNE 4 10 100 1.12 25
2024-04-16 21:04 SE 3 19 100 1.12 26
2024-04-16 20:04 SSW 13 21 100 1.12 27
2024-04-16 19:04 SSW 10 23 100 1.12 28
2024-04-16 18:04 S 10 21 100 1.12 29
2024-04-16 17:04 S 11 27 97 1.12 30
2024-04-16 16:04 S 14 30 86 1.12 30
2024-04-16 15:04 S 14 24 75 1.12 32
2024-04-16 14:04 S 8 26 64 1.12 33
2024-04-16 13:04 SSW 12 25 55 1.12 35
2024-04-16 12:04 SSW 16 25 55 1.12 33
2024-04-16 11:04 SSW 14 23 51 1.12 34
2024-04-16 10:04 SSW 15 24 64 1.12 32
2024-04-16 09:04 SSW 15 28 75 1.12 28
2024-04-16 08:04 SSW 13 18 83 1.12 26
2024-04-16 07:04 SW 10 13 86 1.12 24
2024-04-16 06:04 WSW 11 17 81 1.12 23
2024-04-16 05:04 SW 13 20 83 1.12 24
2024-04-16 04:04 WSW 14 22 80 1.12 25
2024-04-16 03:04 WSW 16 21 80 1.12 26
2024-04-16 02:04 W 14 19 76 1.12 27
2024-04-16 01:04 W 9 16 83 1.12 29
2024-04-16 00:04 WSW 7 11 86 1.12 31
2024-04-15 23:04 NNW 5 11 78 1.12 32
2024-04-15 22:04 NNW 8 12 78 1.12 33
2024-04-15 21:04 NNW 7 15 79 1.12 34
2024-04-15 20:04 WNW 8 10 74 1.12 35
2024-04-15 19:04 WNW 6 13 69 1.12 38
2024-04-15 18:04 N 6 14 68 1.12 39
2024-04-15 17:04 N 8 13 83 1.12 36
2024-04-15 16:04 NNW 10 15 85 1.12 34
2024-04-15 15:04 NW 10 14 91 1.12 34
2024-04-15 14:04 NNW 7 11 91 1.12 35
2024-04-15 13:04 WNW 7 10 85 1.12 35
2024-04-15 12:04 NNW 6 14 92 1.12 35
2024-04-15 11:04 N 9 12 90 1.12 36
2024-04-15 10:04 N 7 10 92 0.98 36
2024-04-15 09:04 NNW 6 9 100 0.97 32